Terminal Aerodrome Forecast
Issued by NWS Cleveland, OH

Home | Current Version | Previous Version | Graphics & Text | Print | Product List | Glossary On
Versions: 1 2 3 4 5 6 7 8 9 10 11 12 13 14 15 16 17 18
000
FTUS41 KCLE 170900 AAA
TAFTOL
TAF AMD
KTOL 170915Z 1709/1806 25005KT 5SM BR VCSH SCT015 BKN035 OVC050
      TEMPO 1710/1712 3SM RA BR BKN018 OVC035
     FM171300 06005KT P6SM SCT012 BKN030
     FM171900 11005KT P6SM VCTS BKN035CB=

USA.gov is the U.S. government's official web portal to all federal, state and local government web resources and services.